Time;durP1;ratioP1;P1;durP2;ratioP2;P2;SDS_P1;SDS_P2;PMS_P1;PMS_P2;Temp;Humidity;BMP_temperature;BMP_pressure;BME280_temperature;BME280_humidity;BME280_pressure;Samples;Min_cycle;Max_cycle;Signal;HPM_P1;HPM_P2
2023/07/30 00:00:06;;;;;;;7.28;0.43;;;;;;;19.59;64.87;100483.94;7362338;19;20098;-68
2023/07/30 00:02:33;;;;;;;6.40;0.47;;;;;;;19.58;65.03;100473.47;7363450;19;20027;-66
2023/07/30 00:05:00;;;;;;;8.13;0.50;;;;;;;19.55;65.15;100473.91;7362073;19;20022;-66
2023/07/30 00:07:27;;;;;;;5.22;0.50;;;;;;;19.51;66.59;100478.03;7364047;19;20010;-65
2023/07/30 00:09:54;;;;;;;3.72;0.30;;;;;;;19.52;66.21;100463.66;7357471;19;20707;-67
2023/07/30 00:12:21;;;;;;;6.15;0.40;;;;;;;19.51;65.72;100464.69;7364974;19;20465;-67
2023/07/30 00:14:48;;;;;;;3.47;0.40;;;;;;;19.49;65.72;100462.28;7360140;19;20475;-66
2023/07/30 00:17:15;;;;;;;5.32;0.40;;;;;;;19.46;65.19;100464.53;7364199;19;20542;-67
2023/07/30 00:19:42;;;;;;;7.10;0.47;;;;;;;19.41;65.60;100475.03;7364489;19;20325;-67
2023/07/30 00:22:09;;;;;;;5.72;0.50;;;;;;;19.36;65.54;100475.69;7363913;19;20027;-67
2023/07/30 00:24:36;;;;;;;5.75;0.30;;;;;;;19.35;66.21;100467.91;7359976;19;20494;-67
2023/07/30 00:27:03;;;;;;;2.75;0.30;;;;;;;19.37;66.17;100468.50;7365511;19;20018;-66
2023/07/30 00:29:31;;;;;;;4.30;0.45;;;;;;;19.34;66.82;100467.09;7364327;19;20060;-65
2023/07/30 00:31:58;;;;;;;6.65;0.50;;;;;;;19.30;65.48;100468.56;7364843;19;20014;-66
2023/07/30 00:34:24;;;;;;;3.63;0.47;;;;;;;19.31;66.10;100466.69;7361546;19;20024;-66
2023/07/30 00:36:52;;;;;;;3.38;0.30;;;;;;;19.30;66.32;100463.22;7363258;19;20029;-65
2023/07/30 00:39:19;;;;;;;3.25;0.40;;;;;;;19.30;66.64;100465.09;7356132;19;20050;-66
2023/07/30 00:41:46;;;;;;;5.65;0.40;;;;;;;19.29;66.08;100468.78;7355879;19;20098;-65
2023/07/30 00:44:13;;;;;;;4.30;0.40;;;;;;;19.25;66.02;100465.72;7360196;19;20015;-67
2023/07/30 00:46:40;;;;;;;3.58;0.30;;;;;;;19.26;66.36;100466.53;7362269;19;20014;-66
2023/07/30 00:49:07;;;;;;;5.05;0.32;;;;;;;19.18;66.17;100468.47;7359240;19;20128;-66
2023/07/30 00:51:34;;;;;;;3.28;0.40;;;;;;;19.19;67.02;100469.28;7362662;19;20002;-67
2023/07/30 00:54:02;;;;;;;5.25;0.50;;;;;;;19.22;67.54;100468.84;7356525;19;20093;-66
2023/07/30 00:56:30;;;;;;;6.45;0.40;;;;;;;19.25;66.87;100462.25;7363230;19;20018;-66
2023/07/30 00:58:57;;;;;;;2.03;0.32;;;;;;;19.23;66.81;100463.28;7359303;19;20022;-67
2023/07/30 01:01:24;;;;;;;4.30;0.30;;;;;;;19.18;67.08;100463.13;7362637;19;20090;-66
2023/07/30 01:03:51;;;;;;;2.95;0.30;;;;;;;19.14;67.18;100472.59;7356308;19;20021;-66
2023/07/30 01:06:20;;;;;;;4.78;0.38;;;;;;;19.11;67.40;100465.03;7360938;19;20022;-67
2023/07/30 01:08:48;;;;;;;3.75;0.40;;;;;;;19.11;68.40;100470.34;7357538;19;20025;-66
2023/07/30 01:11:17;;;;;;;5.00;0.30;;;;;;;19.09;68.03;100461.78;7356332;19;20010;-68
2023/07/30 01:13:45;;;;;;;4.38;0.30;;;;;;;19.10;68.14;100465.22;7356871;19;20148;-67
2023/07/30 01:16:14;;;;;;;6.22;0.40;;;;;;;19.09;68.65;100475.13;7360720;19;20011;-67
2023/07/30 01:18:41;;;;;;;3.00;0.30;;;;;;;19.03;68.87;100473.31;7359985;19;20070;-66
2023/07/30 01:21:08;;;;;;;4.57;0.50;;;;;;;18.96;68.93;100466.38;7362350;19;20033;-67
2023/07/30 01:23:35;;;;;;;2.20;0.40;;;;;;;18.94;69.60;100471.94;7357463;19;20003;-66
2023/07/30 01:26:12;;;;;;;4.70;0.30;;;;;;;18.95;70.31;100473.56;7356470;19;20038;-66
2023/07/30 01:28:46;;;;;;;5.20;0.63;;;;;;;18.92;70.18;100487.31;7359277;19;20090;-66
2023/07/30 01:31:16;;;;;;;7.97;0.43;;;;;;;18.93;70.74;100477.47;7360446;19;20097;-65
2023/07/30 01:33:47;;;;;;;4.85;0.73;;;;;;;18.98;70.53;100490.97;7360585;19;20014;-67
2023/07/30 01:36:16;;;;;;;5.20;0.40;;;;;;;19.01;70.41;100482.53;7361894;19;20011;-66
2023/07/30 01:38:43;;;;;;;2.75;0.30;;;;;;;18.98;70.90;100480.31;7357087;19;20006;-66
2023/07/30 01:41:10;;;;;;;1.35;0.20;;;;;;;18.93;70.61;100486.31;7360517;19;20345;-67
2023/07/30 01:43:37;;;;;;;2.97;0.30;;;;;;;18.93;70.83;100486.31;7357908;19;21629;-67
2023/07/30 01:46:04;;;;;;;4.80;0.40;;;;;;;18.94;70.92;100473.78;7355319;19;21492;-66
2023/07/30 01:48:31;;;;;;;2.80;0.20;;;;;;;18.93;71.03;100470.31;7360971;19;20123;-66
2023/07/30 01:50:58;;;;;;;5.07;0.30;;;;;;;18.91;70.81;100464.34;7357538;19;20014;-70
2023/07/30 01:53:25;;;;;;;3.67;0.40;;;;;;;18.92;71.21;100471.31;7358760;19;20014;-67
2023/07/30 01:55:52;;;;;;;6.15;0.30;;;;;;;18.90;71.13;100468.06;7356814;19;20482;-67
2023/07/30 01:58:19;;;;;;;2.15;0.28;;;;;;;18.88;71.13;100479.97;7360234;19;20057;-67
2023/07/30 02:00:47;;;;;;;1.25;0.20;;;;;;;18.92;71.37;100484.66;7359709;19;20686;-66
2023/07/30 02:03:14;;;;;;;5.85;0.32;;;;;;;18.91;70.97;100490.19;7358251;19;20688;-67
2023/07/30 02:05:50;;;;;;;3.38;0.40;;;;;;;18.95;71.18;100484.22;7357661;19;20098;-68
2023/07/30 02:08:17;;;;;;;3.30;0.30;;;;;;;18.99;71.85;100484.63;7358897;19;20368;-68
2023/07/30 02:10:44;;;;;;;2.55;0.30;;;;;;;18.94;70.88;100479.94;7355234;19;20082;-68
2023/07/30 02:13:11;;;;;;;4.80;0.30;;;;;;;18.90;71.29;100483.22;7362005;19;20035;-65
2023/07/30 02:15:42;;;;;;;4.35;0.40;;;;;;;18.86;71.22;100482.84;7356676;19;20597;-67
2023/07/30 02:18:10;;;;;;;4.22;0.20;;;;;;;18.88;71.76;100479.97;7358037;19;20014;-67
2023/07/30 02:20:37;;;;;;;3.33;0.22;;;;;;;18.85;71.51;100480.38;7359454;19;20018;-67
2023/07/30 02:23:04;;;;;;;2.33;0.22;;;;;;;18.82;71.05;100481.66;7358955;19;20835;-66
2023/07/30 02:25:31;;;;;;;5.03;0.40;;;;;;;18.81;71.48;100472.00;7354357;19;20363;-66
2023/07/30 02:28:00;;;;;;;4.95;0.30;;;;;;;18.84;72.35;100468.13;7357392;19;20014;-67
2023/07/30 02:30:28;;;;;;;4.35;0.30;;;;;;;18.85;71.09;100475.06;7357586;19;20011;-67
2023/07/30 02:32:55;;;;;;;6.85;0.32;;;;;;;18.84;71.56;100476.13;7362039;19;20960;-67
2023/07/30 02:35:22;;;;;;;1.67;0.30;;;;;;;18.83;72.02;100475.28;7358911;19;20035;-71
2023/07/30 02:37:49;;;;;;;3.03;0.68;;;;;;;18.82;71.45;100471.00;7359789;19;20101;-68
2023/07/30 02:40:16;;;;;;;5.20;0.30;;;;;;;18.75;71.47;100457.69;7352241;19;20018;-66
2023/07/30 02:42:43;;;;;;;3.63;0.30;;;;;;;18.80;72.75;100463.19;7360161;19;20014;-66
2023/07/30 02:45:10;;;;;;;5.10;0.32;;;;;;;18.81;72.24;100469.34;7355063;19;20355;-66
2023/07/30 02:47:37;;;;;;;3.50;0.30;;;;;;;18.78;70.99;100475.94;7360865;19;20478;-67
2023/07/30 02:50:05;;;;;;;6.95;0.30;;;;;;;18.79;71.77;100460.78;7358412;19;20015;-67
2023/07/30 02:52:33;;;;;;;3.60;0.25;;;;;;;18.79;70.97;100476.75;7359220;19;20037;-66
2023/07/30 02:55:00;;;;;;;6.38;0.40;;;;;;;18.74;71.83;100480.03;7353747;19;20042;-67
2023/07/30 02:57:26;;;;;;;4.18;0.22;;;;;;;18.72;72.68;100470.66;7358239;19;20010;-66
2023/07/30 02:59:53;;;;;;;4.18;0.20;;;;;;;18.70;71.85;100483.34;7362199;19;20689;-66
2023/07/30 03:02:20;;;;;;;3.35;0.20;;;;;;;18.64;71.82;100493.03;7360179;19;20011;-66
2023/07/30 03:04:48;;;;;;;3.95;0.20;;;;;;;18.62;72.44;100483.63;7358637;19;21633;-66
2023/07/30 03:07:15;;;;;;;2.65;0.10;;;;;;;18.61;72.07;100484.66;7356968;19;20044;-66
2023/07/30 03:09:42;;;;;;;5.68;1.58;;;;;;;18.60;72.75;100477.69;7356069;19;20020;-66
2023/07/30 03:12:09;;;;;;;3.50;0.93;;;;;;;18.59;72.39;100481.41;7355169;19;20240;-67
2023/07/30 03:14:36;;;;;;;2.75;0.20;;;;;;;18.57;71.35;100480.78;7359237;19;20352;-66
2023/07/30 03:17:04;;;;;;;2.58;0.20;;;;;;;18.51;71.08;100481.59;7359197;19;20671;-66
2023/07/30 03:19:31;;;;;;;4.40;0.20;;;;;;;18.44;70.81;100481.63;7350382;19;20731;-66
2023/07/30 03:21:58;;;;;;;2.75;0.40;;;;;;;18.39;70.77;100468.13;7358612;19;20018;-66
2023/07/30 03:24:25;;;;;;;2.95;0.30;;;;;;;18.35;71.67;100470.41;7355873;19;20410;-67
2023/07/30 03:26:52;;;;;;;2.75;0.10;;;;;;;18.34;72.07;100471.41;7360970;19;20017;-65
2023/07/30 03:29:20;;;;;;;2.22;0.15;;;;;;;18.33;72.28;100483.13;7365431;19;20019;-66
2023/07/30 03:31:47;;;;;;;3.08;0.22;;;;;;;18.28;72.69;100485.63;7362697;19;20025;-66
2023/07/30 03:34:14;;;;;;;2.53;0.25;;;;;;;18.31;73.44;100487.84;7361739;19;20589;-67
2023/07/30 03:36:41;;;;;;;2.60;0.20;;;;;;;18.31;73.68;100490.50;7365667;19;20018;-66
2023/07/30 03:39:08;;;;;;;5.35;0.77;;;;;;;18.33;73.98;100493.78;7357867;19;20019;-66
2023/07/30 03:41:35;;;;;;;5.95;0.20;;;;;;;18.38;75.01;100490.50;7364388;19;20041;-65
2023/07/30 03:44:02;;;;;;;3.05;0.20;;;;;;;18.38;74.41;100488.66;7359733;19;20014;-66
2023/07/30 03:46:29;;;;;;;4.95;0.30;;;;;;;18.38;74.65;100488.66;7358718;19;20035;-68
2023/07/30 03:48:57;;;;;;;3.72;0.20;;;;;;;18.37;74.38;100487.00;7363457;19;20479;-66
2023/07/30 03:51:24;;;;;;;3.10;0.20;;;;;;;18.32;74.24;100484.16;7361599;19;20026;-66
2023/07/30 03:53:51;;;;;;;3.55;0.40;;;;;;;18.25;74.70;100496.66;7361375;19;20458;-66
2023/07/30 03:56:18;;;;;;;4.13;0.30;;;;;;;18.21;75.21;100494.66;7365650;19;20031;-66
2023/07/30 03:58:45;;;;;;;6.55;0.30;;;;;;;18.17;75.12;100496.91;7361892;19;20028;-66
2023/07/30 04:01:12;;;;;;;1.75;0.30;;;;;;;18.20;76.07;100503.66;7364156;19;20015;-66
2023/07/30 04:03:39;;;;;;;1.92;0.20;;;;;;;18.15;75.77;100498.16;7364009;19;20011;-66
2023/07/30 04:06:06;;;;;;;6.00;1.35;;;;;;;18.15;75.63;100504.28;7364212;19;20019;-66
2023/07/30 04:08:33;;;;;;;3.42;0.40;;;;;;;18.10;75.68;100503.28;7361589;19;20015;-66
2023/07/30 04:11:00;;;;;;;5.65;0.28;;;;;;;18.10;76.23;100505.94;7360808;19;20212;-66
2023/07/30 04:13:28;;;;;;;3.25;0.30;;;;;;;18.07;76.00;100504.53;7365232;19;20027;-66
2023/07/30 04:15:55;;;;;;;5.60;0.40;;;;;;;18.07;76.18;100504.53;7361478;19;20059;-66
2023/07/30 04:18:22;;;;;;;6.15;0.30;;;;;;;18.07;76.11;100501.88;7364678;19;20018;-67
2023/07/30 04:20:49;;;;;;;5.00;0.40;;;;;;;18.07;76.10;100503.72;7361707;19;20010;-65
2023/07/30 04:23:16;;;;;;;8.88;0.95;;;;;;;18.10;76.70;100504.09;7364767;19;20022;-66
2023/07/30 04:25:44;;;;;;;2.88;0.30;;;;;;;18.08;76.09;100500.81;7358177;19;20502;-66
2023/07/30 04:28:11;;;;;;;1.73;0.20;;;;;;;18.06;76.29;100502.91;7364095;19;20007;-67
2023/07/30 04:30:38;;;;;;;5.13;0.30;;;;;;;18.06;76.34;100492.25;7358615;19;20687;-66
2023/07/30 04:33:05;;;;;;;2.75;0.30;;;;;;;18.04;76.50;100499.59;7363547;19;20103;-66
2023/07/30 04:35:32;;;;;;;3.05;0.30;;;;;;;18.05;76.83;100503.09;7359809;19;20019;-66
2023/07/30 04:37:59;;;;;;;1.77;0.30;;;;;;;18.04;77.29;100502.28;7361983;19;20010;-66
2023/07/30 04:40:26;;;;;;;5.45;0.30;;;;;;;18.05;77.23;100506.56;7359559;19;20006;-66
2023/07/30 04:42:53;;;;;;;6.45;0.30;;;;;;;18.05;77.03;100514.56;7363188;19;20086;-66
2023/07/30 04:45:20;;;;;;;4.60;0.30;;;;;;;18.05;76.99;100519.88;7359607;19;20380;-65
2023/07/30 04:47:47;;;;;;;6.28;0.52;;;;;;;18.07;77.26;100515.19;7361759;19;20023;-67
2023/07/30 04:50:14;;;;;;;2.30;0.25;;;;;;;18.05;76.98;100519.88;7360044;19;20053;-65
2023/07/30 04:52:41;;;;;;;7.30;0.28;;;;;;;18.01;77.23;100523.19;7363008;19;20637;-66
2023/07/30 04:55:08;;;;;;;6.38;0.22;;;;;;;18.03;77.00;100524.59;7358874;19;20681;-66
2023/07/30 04:57:35;;;;;;;2.83;0.20;;;;;;;17.97;76.85;100530.78;7363875;19;20031;-70
2023/07/30 05:00:03;;;;;;;5.28;0.40;;;;;;;17.90;77.25;100524.63;7358665;19;20044;-67
2023/07/30 05:02:30;;;;;;;4.03;0.25;;;;;;;17.91;78.05;100529.75;7364089;19;20033;-66
2023/07/30 05:04:57;;;;;;;4.93;0.40;;;;;;;17.91;77.44;100527.09;7361758;19;20014;-67
2023/07/30 05:07:24;;;;;;;4.97;0.30;;;;;;;17.94;78.11;100523.19;7364125;19;20729;-66
2023/07/30 05:09:51;;;;;;;3.55;0.20;;;;;;;17.97;78.04;100536.09;7358346;19;20022;-66
2023/07/30 05:12:18;;;;;;;4.57;0.50;;;;;;;17.93;77.22;100538.34;7362824;19;20022;-67
2023/07/30 05:14:45;;;;;;;7.20;0.82;;;;;;;17.90;77.42;100538.78;7361508;19;20022;-67
2023/07/30 05:17:12;;;;;;;3.85;0.30;;;;;;;17.88;78.28;100540.81;7363372;19;20514;-67
2023/07/30 05:19:39;;;;;;;3.17;0.30;;;;;;;17.91;78.96;100529.75;7361572;19;20501;-67
2023/07/30 05:22:07;;;;;;;3.55;0.20;;;;;;;17.95;79.04;100535.47;7362945;19;20835;-66
2023/07/30 05:24:36;;;;;;;1.75;0.20;;;;;;;17.93;78.59;100543.66;7354812;19;20017;-67
2023/07/30 05:27:04;;;;;;;5.15;0.50;;;;;;;17.99;78.55;100531.38;7362531;19;20102;-66
2023/07/30 05:29:31;;;;;;;6.88;0.95;;;;;;;18.00;77.91;100541.00;7361313;19;20056;-66
2023/07/30 05:31:58;;;;;;;8.27;0.70;;;;;;;18.03;77.78;100553.88;7361872;19;20099;-66
2023/07/30 05:34:25;;;;;;;5.10;1.27;;;;;;;18.04;78.68;100550.19;7361413;19;20705;-66
2023/07/30 05:36:52;;;;;;;4.30;0.40;;;;;;;18.01;78.35;100539.97;7361999;19;20554;-66
2023/07/30 05:39:20;;;;;;;5.63;0.30;;;;;;;18.04;78.48;100552.88;7354132;19;20269;-66
2023/07/30 05:41:47;;;;;;;6.18;0.30;;;;;;;18.04;77.67;100547.53;7362233;19;20498;-66
2023/07/30 05:44:14;;;;;;;3.40;0.45;;;;;;;18.05;78.23;100545.69;7360766;19;20517;-66
2023/07/30 05:46:41;;;;;;;6.32;1.42;;;;;;;18.05;78.05;100551.03;7357038;19;20474;-67
2023/07/30 05:49:08;;;;;;;5.70;0.30;;;;;;;18.12;79.09;100559.84;7354441;19;20106;-66
2023/07/30 05:51:35;;;;;;;8.93;0.45;;;;;;;18.13;78.30;100567.63;7359085;19;20064;-66
2023/07/30 05:54:02;;;;;;;9.18;0.40;;;;;;;18.11;77.64;100568.84;7357558;19;20006;-66
2023/07/30 05:56:29;;;;;;;5.50;0.30;;;;;;;18.06;77.52;100573.97;7361368;19;20040;-66
2023/07/30 05:58:56;;;;;;;8.88;0.45;;;;;;;18.03;77.79;100572.53;7361211;19;20022;-67
2023/07/30 06:01:23;;;;;;;7.95;0.40;;;;;;;18.05;78.23;100575.00;7359491;19;20011;-67
2023/07/30 06:03:50;;;;;;;6.97;1.08;;;;;;;18.13;78.58;100577.44;7358177;19;20010;-66
2023/07/30 06:06:19;;;;;;;2.97;0.40;;;;;;;18.17;77.96;100574.16;7360965;19;20024;-66
2023/07/30 06:08:46;;;;;;;7.20;1.05;;;;;;;18.24;78.09;100574.13;7357127;19;20014;-67
2023/07/30 06:11:13;;;;;;;6.22;0.63;;;;;;;18.25;77.71;100575.78;7359271;19;20018;-67
2023/07/30 06:13:40;;;;;;;6.07;0.85;;;;;;;18.25;77.70;100573.09;7360781;19;20043;-66
2023/07/30 06:16:07;;;;;;;4.25;0.30;;;;;;;18.28;77.87;100556.72;7360147;19;20014;-66
2023/07/30 06:18:34;;;;;;;6.75;0.88;;;;;;;18.32;77.85;100571.25;7360110;19;20014;-67
2023/07/30 06:21:01;;;;;;;5.10;0.32;;;;;;;18.35;77.88;100584.97;7360631;19;20026;-65
2023/07/30 06:23:28;;;;;;;10.05;0.52;;;;;;;18.36;77.49;100588.44;7363532;19;20596;-67
2023/07/30 06:25:55;;;;;;;6.25;0.32;;;;;;;18.40;77.07;100592.31;7360355;19;20827;-66
2023/07/30 06:28:23;;;;;;;7.38;1.40;;;;;;;18.39;76.96;100593.34;7364499;19;20105;-67
2023/07/30 06:30:50;;;;;;;3.17;0.25;;;;;;;18.37;77.29;100590.09;7360246;19;20038;-67
2023/07/30 06:33:17;;;;;;;7.25;0.82;;;;;;;18.38;77.16;100591.72;7361004;19;20264;-65
2023/07/30 06:35:55;;;;;;;12.98;0.60;;;;;;;18.42;77.08;100592.13;7355986;19;20082;-68
2023/07/30 06:38:22;;;;;;;4.25;0.50;;;;;;;18.45;76.92;100591.69;7359523;19;20019;-65
2023/07/30 06:40:49;;;;;;;7.50;0.30;;;;;;;18.42;76.52;100598.28;7356146;19;20529;-67
2023/07/30 06:43:16;;;;;;;5.95;0.50;;;;;;;18.39;76.76;100594.16;7360161;19;20031;-67
2023/07/30 06:45:50;;;;;;;9.15;0.50;;;;;;;18.41;76.78;100593.16;7359345;19;20015;-65
2023/07/30 06:48:17;;;;;;;5.40;0.40;;;;;;;18.45;77.08;100595.19;7354061;19;20134;-66
2023/07/30 06:50:44;;;;;;;4.18;0.32;;;;;;;18.48;76.24;100591.28;7357036;19;20081;-65
2023/07/30 06:53:11;;;;;;;6.00;0.40;;;;;;;18.53;76.28;100600.28;7357413;19;20022;-67
2023/07/30 06:55:38;;;;;;;8.43;0.40;;;;;;;18.55;76.26;100597.44;7355530;19;20046;-67
2023/07/30 06:58:05;;;;;;;8.98;0.60;;;;;;;18.58;76.13;100605.84;7360312;19;21767;-67
2023/07/30 07:00:32;;;;;;;5.88;0.40;;;;;;;18.58;75.77;100610.34;7356371;19;20574;-67
2023/07/30 07:02:59;;;;;;;5.97;0.40;;;;;;;18.59;76.00;100615.44;7363942;19;20962;-69
2023/07/30 07:05:26;;;;;;;4.95;0.52;;;;;;;18.61;76.00;100609.91;7365986;19;20010;-67
2023/07/30 07:07:53;;;;;;;3.53;0.30;;;;;;;18.61;76.01;100602.75;7367269;19;20027;-66
2023/07/30 07:10:20;;;;;;;4.25;0.40;;;;;;;18.64;76.19;100598.84;7360298;19;20405;-66
2023/07/30 07:12:47;;;;;;;11.05;0.45;;;;;;;18.65;75.74;100603.13;7364604;19;20026;-67
2023/07/30 07:15:14;;;;;;;4.63;0.43;;;;;;;18.65;75.79;100600.47;7366503;19;20101;-67
2023/07/30 07:17:41;;;;;;;4.80;0.50;;;;;;;18.66;74.95;100600.25;7364498;19;20015;-67
2023/07/30 07:20:10;;;;;;;4.03;0.30;;;;;;;18.70;75.48;100609.47;7365808;19;20021;-66
2023/07/30 07:22:37;;;;;;;8.23;0.50;;;;;;;18.78;75.22;100605.75;7366931;19;20018;-67
2023/07/30 07:25:04;;;;;;;5.53;0.50;;;;;;;18.73;74.53;100613.56;7361949;19;20110;-67
2023/07/30 07:27:31;;;;;;;6.10;1.00;;;;;;;18.75;75.06;100619.50;7365489;19;20010;-66
2023/07/30 07:29:59;;;;;;;2.97;0.30;;;;;;;18.79;75.61;100618.06;7365487;19;20014;-64
2023/07/30 07:32:26;;;;;;;5.13;0.45;;;;;;;18.79;74.63;100608.19;7365478;19;20131;-66
2023/07/30 07:34:54;;;;;;;5.10;0.35;;;;;;;18.89;74.66;100618.44;7362197;19;20577;-67
2023/07/30 07:37:21;;;;;;;7.72;0.80;;;;;;;18.93;74.36;100619.63;7366319;19;20018;-66
2023/07/30 07:39:48;;;;;;;4.25;0.47;;;;;;;19.03;74.30;100624.50;7359845;19;20006;-68
2023/07/30 07:42:15;;;;;;;5.07;0.43;;;;;;;19.13;74.76;100628.34;7366729;19;20018;-67
2023/07/30 07:44:45;;;;;;;8.88;0.40;;;;;;;19.25;72.69;100627.69;7363355;19;20134;-67
2023/07/30 07:47:13;;;;;;;6.93;0.40;;;;;;;19.43;72.76;100635.78;7364704;19;20681;-67
2023/07/30 07:49:40;;;;;;;4.72;0.40;;;;;;;19.67;72.04;100623.50;7358921;19;20014;-66
2023/07/30 07:52:07;;;;;;;3.97;0.40;;;;;;;19.84;71.31;100620.09;7364795;19;20314;-66
2023/07/30 07:54:35;;;;;;;5.90;0.38;;;;;;;19.91;68.30;100628.06;7361366;19;20026;-67
2023/07/30 07:57:02;;;;;;;4.35;0.40;;;;;;;19.96;68.18;100631.69;7363801;19;20527;-68
2023/07/30 07:59:29;;;;;;;4.25;0.40;;;;;;;20.06;67.71;100639.22;7361376;19;20782;-66
2023/07/30 08:01:56;;;;;;;7.22;0.57;;;;;;;20.12;67.33;100634.84;7365471;19;20347;-67
2023/07/30 08:04:23;;;;;;;6.28;0.30;;;;;;;20.09;67.19;100649.47;7361754;19;20490;-66
2023/07/30 08:06:50;;;;;;;4.68;0.75;;;;;;;20.02;65.13;100632.66;7366125;19;20494;-67
2023/07/30 08:09:17;;;;;;;9.40;0.50;;;;;;;20.00;66.26;100634.75;7358101;19;20018;-66
2023/07/30 08:11:44;;;;;;;6.38;0.63;;;;;;;19.98;66.57;100637.63;7362867;19;20018;-67
2023/07/30 08:14:11;;;;;;;5.05;0.40;;;;;;;19.97;66.63;100638.66;7359907;19;20090;-68
2023/07/30 08:16:39;;;;;;;8.60;0.60;;;;;;;19.89;65.93;100630.94;7362863;19;20527;-68
2023/07/30 08:19:06;;;;;;;5.63;0.47;;;;;;;19.90;65.44;100631.75;7361836;19;20014;-67
2023/07/30 08:21:33;;;;;;;5.47;0.52;;;;;;;19.93;65.73;100634.81;7365182;19;20022;-67
2023/07/30 08:24:00;;;;;;;5.05;0.52;;;;;;;19.97;66.79;100627.16;7360203;19;20774;-66
2023/07/30 08:26:27;;;;;;;3.80;0.32;;;;;;;20.00;66.57;100627.56;7365465;19;20042;-66
2023/07/30 08:28:54;;;;;;;5.68;0.40;;;;;;;20.07;67.17;100627.47;7362505;19;20098;-67
2023/07/30 08:31:21;;;;;;;5.22;1.30;;;;;;;20.14;66.63;100636.25;7365671;19;20089;-67
2023/07/30 08:33:48;;;;;;;5.75;0.40;;;;;;;20.15;65.08;100624.53;7360192;19;20666;-67
2023/07/30 08:36:15;;;;;;;6.35;0.60;;;;;;;20.22;65.34;100632.47;7365056;19;21972;-66
2023/07/30 08:38:42;;;;;;;9.05;0.57;;;;;;;20.23;65.54;100629.59;7360641;19;20018;-67
2023/07/30 08:41:09;;;;;;;4.07;0.30;;;;;;;20.26;64.31;100641.72;7362525;19;20315;-67
2023/07/30 08:43:37;;;;;;;4.03;0.40;;;;;;;20.20;63.24;100637.25;7363562;19;20916;-66
2023/07/30 08:46:04;;;;;;;2.08;0.30;;;;;;;20.20;63.12;100637.25;7363524;19;20908;-66
2023/07/30 08:48:31;;;;;;;8.50;0.60;;;;;;;20.21;63.13;100636.22;7361250;19;20093;-66
2023/07/30 08:50:59;;;;;;;5.63;0.45;;;;;;;20.25;62.70;100635.53;7357328;19;20018;-67
2023/07/30 08:53:26;;;;;;;4.00;0.38;;;;;;;20.30;62.94;100638.38;7361137;19;20105;-67
2023/07/30 08:55:55;;;;;;;2.85;0.32;;;;;;;20.34;62.85;100630.75;7359022;19;20019;-68
2023/07/30 08:58:25;;;;;;;4.60;0.50;;;;;;;20.37;63.08;100632.97;7363799;19;20025;-67
2023/07/30 09:00:55;;;;;;;2.28;0.20;;;;;;;20.43;63.99;100648.13;7363178;19;20036;-66
2023/07/30 09:03:26;;;;;;;3.78;0.30;;;;;;;20.45;63.53;100644.19;7362779;19;20352;-66
2023/07/30 09:06:02;;;;;;;4.75;0.57;;;;;;;20.45;62.82;100646.06;7361141;19;20013;-66
2023/07/30 09:08:31;;;;;;;2.78;0.40;;;;;;;20.48;63.36;100657.13;7359824;19;20026;-68
2023/07/30 09:11:09;;;;;;;3.53;0.35;;;;;;;20.63;64.03;100648.72;7353562;19;20022;-67
2023/07/30 09:13:41;;;;;;;5.70;0.32;;;;;;;20.87;61.10;100647.03;7361059;19;20022;-67
2023/07/30 09:16:10;;;;;;;4.57;0.47;;;;;;;21.01;59.47;100639.63;7360237;19;20011;-67
2023/07/30 09:18:42;;;;;;;6.07;0.50;;;;;;;21.48;59.91;100649.53;7356791;19;20094;-68
2023/07/30 09:21:13;;;;;;;4.82;0.30;;;;;;;21.77;57.85;100651.31;7361121;19;20029;-67
2023/07/30 09:23:46;;;;;;;2.67;0.40;;;;;;;21.82;57.47;100653.31;7356329;19;20111;-67
2023/07/30 09:26:14;;;;;;;3.55;0.30;;;;;;;21.62;55.89;100650.94;7358967;19;20018;-67
2023/07/30 09:28:41;;;;;;;3.38;0.40;;;;;;;21.44;57.26;100648.31;7361513;19;20620;-67
2023/07/30 09:31:09;;;;;;;4.43;0.40;;;;;;;21.31;56.78;100646.66;7362639;19;20081;-67
2023/07/30 09:33:48;;;;;;;5.72;0.40;;;;;;;21.30;59.02;100647.69;7358516;19;20063;-67
2023/07/30 09:36:18;;;;;;;6.25;0.50;;;;;;;21.30;58.46;100642.34;7360908;19;20023;-67
2023/07/30 09:38:46;;;;;;;6.88;0.47;;;;;;;21.31;58.75;100645.84;7354483;19;20263;-66
2023/07/30 09:41:14;;;;;;;2.53;0.30;;;;;;;21.39;59.78;100660.75;7361798;19;20024;-67
2023/07/30 09:43:41;;;;;;;3.47;0.43;;;;;;;21.37;57.81;100646.78;7362232;19;20014;-69
2023/07/30 09:46:09;;;;;;;3.95;0.60;;;;;;;21.29;57.19;100661.31;7357275;19;20017;-68
2023/07/30 09:48:36;;;;;;;14.07;0.50;;;;;;;21.28;58.91;100652.44;7360894;19;20006;-68
2023/07/30 09:51:04;;;;;;;6.28;0.45;;;;;;;21.29;59.05;100662.13;7355999;19;20468;-67
2023/07/30 09:53:36;;;;;;;7.32;0.50;;;;;;;21.30;59.33;100658.41;7356673;19;20038;-66
2023/07/30 09:56:05;;;;;;;7.15;0.30;;;;;;;21.29;57.67;100650.59;7358580;19;20482;-67
2023/07/30 09:58:32;;;;;;;5.63;0.50;;;;;;;21.33;57.75;100660.63;7361462;19;20102;-68
2023/07/30 10:01:00;;;;;;;5.90;0.40;;;;;;;21.42;58.02;100660.31;7358163;19;20027;-68
2023/07/30 10:03:28;;;;;;;2.75;0.35;;;;;;;21.51;56.93;100657.09;7361725;19;20062;-67
2023/07/30 10:06:04;;;;;;;4.65;1.05;;;;;;;21.53;57.94;100652.31;7356091;19;20022;-68
2023/07/30 10:08:35;;;;;;;3.53;0.30;;;;;;;21.53;57.43;100655.00;7360308;19;20010;-66
2023/07/30 10:11:04;;;;;;;3.65;0.35;;;;;;;21.49;57.97;100658.34;7355681;19;20010;-67
2023/07/30 10:13:32;;;;;;;4.22;0.38;;;;;;;21.46;58.42;100664.16;7360288;19;20684;-66
2023/07/30 10:15:59;;;;;;;3.67;0.38;;;;;;;21.46;59.16;100664.16;7360868;19;20090;-67
2023/07/30 10:18:43;;;;;;;6.22;0.40;;;;;;;21.51;58.58;100654.41;7360727;19;20114;-66
2023/07/30 10:21:21;;;;;;;3.05;0.30;;;;;;;21.51;57.21;100657.09;7362133;19;20023;-67
2023/07/30 10:24:03;;;;;;;4.15;0.40;;;;;;;21.52;58.47;100658.72;7354870;19;20025;-66
2023/07/30 10:26:32;;;;;;;5.78;0.60;;;;;;;21.51;57.84;100658.94;7360811;19;20042;-67
2023/07/30 10:29:13;;;;;;;3.92;0.30;;;;;;;21.48;58.72;100668.25;7356680;19;20018;-66
2023/07/30 10:32:06;;;;;;;4.85;0.43;;;;;;;21.41;59.08;100661.34;7359165;19;20503;-66
2023/07/30 10:34:45;;;;;;;2.78;0.52;;;;;;;21.37;60.29;100676.25;7357635;19;20019;-66
2023/07/30 10:37:21;;;;;;;5.15;0.50;;;;;;;21.32;61.44;100669.72;7357432;19;20487;-67
2023/07/30 10:39:48;;;;;;;4.45;0.40;;;;;;;21.28;60.64;100684.56;7355403;19;20021;-67
2023/07/30 10:42:18;;;;;;;3.90;0.38;;;;;;;21.25;61.38;100674.34;7361845;19;20042;-67
2023/07/30 10:44:45;;;;;;;7.78;0.50;;;;;;;21.23;62.12;100672.94;7360463;19;20014;-68
2023/07/30 10:47:12;;;;;;;7.32;0.50;;;;;;;21.22;61.85;100674.81;7360613;19;20007;-67
2023/07/30 10:50:02;;;;;;;4.30;0.30;;;;;;;21.30;62.84;100676.34;7357594;19;20029;-70
2023/07/30 10:52:29;;;;;;;3.13;0.60;;;;;;;21.34;62.34;100675.66;7356947;19;20015;-67
2023/07/30 10:55:01;;;;;;;4.40;0.55;;;;;;;21.40;62.73;100679.28;7356374;19;20098;-67
2023/07/30 10:57:34;;;;;;;4.50;0.30;;;;;;;21.42;63.96;100679.06;7357351;19;20456;-66
2023/07/30 11:00:02;;;;;;;4.95;0.43;;;;;;;21.43;63.54;100676.16;7355566;19;20026;-67
2023/07/30 11:02:29;;;;;;;4.93;0.40;;;;;;;21.34;62.62;100674.81;7359659;19;20012;-69
2023/07/30 11:04:57;;;;;;;8.57;0.47;;;;;;;21.29;62.97;100675.50;7357460;19;21651;-68
2023/07/30 11:07:24;;;;;;;5.95;0.60;;;;;;;21.27;63.16;100666.91;7349725;19;20384;-67
2023/07/30 11:10:04;;;;;;;8.02;0.60;;;;;;;21.28;64.09;100673.09;7349809;19;20026;-68
2023/07/30 11:12:32;;;;;;;6.50;0.80;;;;;;;21.30;64.28;100671.78;7359016;19;20019;-66
2023/07/30 11:15:03;;;;;;;5.63;0.47;;;;;;;21.30;64.45;100674.47;7353902;19;20042;-66
2023/07/30 11:17:30;;;;;;;6.38;0.30;;;;;;;21.27;63.66;100666.91;7359447;19;20006;-67
2023/07/30 11:19:57;;;;;;;3.15;0.30;;;;;;;21.27;64.49;100674.13;7355080;19;20155;-67
2023/07/30 11:22:35;;;;;;;5.45;0.60;;;;;;;21.23;64.47;100673.72;7357030;19;20014;-67
2023/07/30 11:25:07;;;;;;;4.40;0.43;;;;;;;21.18;64.14;100678.94;7353995;19;20026;-66
2023/07/30 11:27:47;;;;;;;;;;;;;;;21.14;64.43;100679.63;7358085;19;20382;-67